Terminal Aerodrome Forecast
Issued by NWS Omaha/Valley, NE

Home | Current Version | Previous Version | Graphics & Text | Print | Product List | Glossary On
Versions: 1 2 3 4 5 6 7 8 9 10 11 12 13 14 15 16 17 18 19 20 21 22 23 24 25 26 27 28 29 30 31 32 33 34 35 36 37 38 39 40 41 42
000
FTUS43 KOAX 242003 AAA
TAFOFK
TAF AMD
KOFK 242003Z 2420/2518 18008KT P6SM BKN090
     FM250000 18005KT P6SM OVC050
     FM250200 27008KT P6SM BKN250
     FM251400 30016G23KT P6SM OVC250
     FM251700 31018G26KT P6SM BKN025=

USA.gov is the U.S. government's official web portal to all federal, state and local government web resources and services.